MDT,Max TemperatureF,Mean TemperatureF,Min TemperatureF,Max Dew PointF,MeanDew PointF,Min DewpointF,Max Humidity, Mean Humidity, Min Humidity, Max Sea Level PressureIn, Mean Sea Level PressureIn, Min Sea Level PressureIn, Max VisibilityMiles, Mean VisibilityMiles, Min VisibilityMiles, Max Wind SpeedMPH, Mean Wind SpeedMPH, Max Gust SpeedMPH,PrecipitationIn, CloudCover, Events, WindDirDegrees
2010-10-1,80,66,51,39,37,34,54,38,20,30.24,30.11,30.06,10,10,10,16,11,17,0.00,0,,60
2010-10-2,60,50,42,41,38,31,89,68,47,30.45,30.33,30.23,10,10,10,20,12,26,0.00,4,,125
2010-10-3,75,58,42,44,37,30,80,51,27,30.21,30.10,29.98,10,10,10,23,18,29,0.00,0,,155
2010-10-4,84,63,42,47,43,36,93,57,18,30.02,29.95,29.86,10,10,9,22,13,31,0.00,0,,166
2010-10-5,82,63,44,47,45,41,89,54,26,30.12,30.02,29.92,10,10,9,14,8,24,0.00,0,,127
2010-10-6,73,61,50,49,46,43,83,62,41,30.33,30.23,30.12,10,10,10,18,9,25,0.00,0,,69
2010-10-7,84,66,48,49,43,34,90,49,18,30.21,30.07,29.90,10,10,10,20,12,30,0.00,0,,169
2010-10-8,78,64,50,46,36,23,57,40,13,30.06,29.93,29.78,10,10,9,38,13,51,0.01,1,Thunderstorm,260
2010-10-9,70,55,41,44,30,26,83,41,21,30.11,30.05,30.00,10,10,10,26,15,34,0.01,2,Rain,293
2010-10-10,62,52,44,48,46,42,97,86,59,30.14,30.03,29.94,10,8,2,23,15,33,0.66,6,Rain-Thunderstorm,313
2010-10-11,64,53,42,47,40,35,97,67,33,30.08,30.03,29.98,10,9,4,13,9,20,0.00,1,,338
2010-10-12,53,48,42,47,43,37,97,86,73,30.42,30.31,30.08,10,9,2,20,11,26,0.02,5,Rain,305
2010-10-13,64,50,37,42,38,34,97,65,33,30.50,30.39,30.29,10,10,9,15,5,,0.00,0,,236
2010-10-14,73,58,43,40,35,29,82,47,20,30.31,30.21,30.10,10,10,10,15,11,,0.00,0,,233
2010-10-15,79,64,48,34,30,24,52,32,14,30.07,30.00,29.90,10,10,9,16,10,,0.00,0,,270
2010-10-16,63,54,46,33,29,22,54,41,24,30.23,30.12,29.96,10,10,10,24,12,30,0.00,0,,56
2010-10-17,75,58,42,36,32,28,65,45,19,30.13,30.01,29.88,10,10,9,15,10,,0.00,0,,149
2010-10-18,57,47,37,36,32,30,76,58,36,30.18,30.11,30.01,10,10,10,14,10,17,0.00,4,,41
2010-10-19,66,54,41,36,30,24,76,49,21,30.10,30.06,30.01,10,10,10,18,11,,0.00,0,,271
2010-10-20,71,54,37,33,28,27,67,40,20,30.11,30.05,30.01,10,10,10,14,8,20,0.00,0,,255
2010-10-21,72,56,39,44,34,27,86,46,24,30.01,29.92,29.80,10,10,10,20,10,25,0.00,0,,163
2010-10-22,61,50,39,49,45,39,100,87,52,29.84,29.75,29.62,10,8,0,18,9,24,0.07,6,Fog-Rain-Thunderstorm,147
2010-10-23,59,49,41,48,44,39,100,88,62,29.80,29.70,29.62,10,6,0,22,9,30,0.00,4,Fog-Rain,294
2010-10-24,66,52,39,43,34,27,93,58,23,29.83,29.67,29.34,10,10,10,15,11,,0.00,1,,241
2010-10-25,61,48,37,39,29,13,70,48,24,29.52,29.29,29.07,10,10,10,41,18,53,0.00,2,Rain,278
2010-10-26,54,41,28,27,15,5,75,43,14,29.75,29.61,29.52,10,10,10,33,16,45,0.00,1,,276
2010-10-27,51,38,25,16,14,11,63,40,20,30.40,30.10,29.75,10,10,10,37,18,51,0.00,1,,294
2010-10-28,62,44,26,14,10,1,60,31,9,30.53,30.40,30.21,10,10,10,18,11,28,0.00,0,,196
2010-10-29,75,56,37,14,11,6,36,21,7,30.17,30.03,29.88,10,10,10,17,11,,0.00,0,,282
2010-10-30,70,56,44,29,24,11,50,31,17,30.00,29.89,29.81,10,10,10,22,9,28,0.00,0,,120
2010-10-31,61,49,37,32,29,25,62,49,31,30.16,30.02,29.86,10,10,10,14,9,,0.00,4,,138